Time;durP1;ratioP1;P1;durP2;ratioP2;P2;SDS_P1;SDS_P2;PMS_P1;PMS_P2;Temp;Humidity;BMP_temperature;BMP_pressure;BME280_temperature;BME280_humidity;BME280_pressure;Samples;Min_cycle;Max_cycle;Signal;HPM_P1;HPM_P2
2022/09/26 00:02:16;;;;;;;10.32;3.33;;;10.30;99.90;;;;;;5073009;28;20035;-63
2022/09/26 00:04:42;;;;;;;5.18;2.97;;;10.30;99.90;;;;;;5076128;28;20533;-63
2022/09/26 00:07:07;;;;;;;5.35;2.90;;;10.30;99.90;;;;;;5054714;28;20043;-63
2022/09/26 00:09:33;;;;;;;4.22;3.25;;;10.30;99.90;;;;;;5071329;28;20044;-63
2022/09/26 00:11:59;;;;;;;6.32;3.35;;;10.30;99.90;;;;;;5080231;28;20035;-63
2022/09/26 00:14:27;;;;;;;5.05;3.22;;;10.30;99.90;;;;;;5082209;28;20046;-64
2022/09/26 00:16:53;;;;;;;7.20;3.28;;;10.30;99.90;;;;;;5082627;28;20036;-63
2022/09/26 00:19:20;;;;;;;6.93;3.72;;;10.30;99.90;;;;;;5077346;28;20064;-63
2022/09/26 00:21:45;;;;;;;6.03;3.53;;;10.40;99.90;;;;;;5076075;28;20045;-64
2022/09/26 00:24:11;;;;;;;6.00;3.10;;;10.40;99.90;;;;;;5075581;28;20089;-63
2022/09/26 00:26:37;;;;;;;6.35;3.80;;;10.40;99.90;;;;;;5080814;28;20040;-63
2022/09/26 00:29:06;;;;;;;5.00;3.10;;;10.40;99.90;;;;;;5078294;28;20059;-63
2022/09/26 00:31:34;;;;;;;8.13;3.58;;;10.40;99.90;;;;;;5084125;28;20071;-63
2022/09/26 00:34:00;;;;;;;6.38;3.42;;;10.40;99.90;;;;;;5072742;28;20188;-63
2022/09/26 00:36:27;;;;;;;6.40;3.25;;;10.40;99.90;;;;;;5077388;28;20410;-64
2022/09/26 00:38:52;;;;;;;6.50;3.88;;;10.40;99.90;;;;;;5085696;28;20032;-63
2022/09/26 00:41:19;;;;;;;5.68;3.58;;;10.40;99.90;;;;;;5075250;28;20028;-63
2022/09/26 00:43:56;;;;;;;5.45;3.35;;;10.40;99.90;;;;;;5084625;28;20028;-63
2022/09/26 00:46:26;;;;;;;6.72;3.15;;;10.40;99.90;;;;;;5079527;28;20046;-62
2022/09/26 00:49:20;;;;;;;5.20;3.55;;;10.40;99.90;;;;;;5086631;28;20072;-63
2022/09/26 00:51:53;;;;;;;6.72;3.15;;;10.40;99.90;;;;;;5084176;28;20101;-63
2022/09/26 00:54:19;;;;;;;6.50;3.35;;;10.40;99.90;;;;;;5084517;28;20036;-63
2022/09/26 00:56:49;;;;;;;4.53;3.20;;;10.40;99.90;;;;;;5076604;28;20037;-63
2022/09/26 00:59:21;;;;;;;4.13;2.90;;;10.40;99.90;;;;;;5078200;28;20040;-64
2022/09/26 01:01:47;;;;;;;7.28;2.85;;;10.50;99.90;;;;;;5077045;28;20044;-62
2022/09/26 01:04:14;;;;;;;5.57;2.70;;;10.40;99.90;;;;;;5078948;28;20446;-63
2022/09/26 01:06:40;;;;;;;7.00;3.03;;;10.40;99.90;;;;;;5079681;28;20182;-62
2022/09/26 01:09:09;;;;;;;5.72;2.80;;;10.40;99.90;;;;;;5088982;28;20534;-63
2022/09/26 01:11:39;;;;;;;5.63;2.65;;;10.40;99.90;;;;;;5075712;28;20049;-63
2022/09/26 01:14:08;;;;;;;5.88;3.33;;;10.40;99.90;;;;;;5079577;28;20036;-63
2022/09/26 01:16:35;;;;;;;4.40;2.67;;;10.40;99.90;;;;;;5086013;28;20040;-63
2022/09/26 01:19:04;;;;;;;6.80;2.72;;;10.40;99.90;;;;;;5082126;28;20139;-64
2022/09/26 01:21:49;;;;;;;4.63;2.40;;;10.40;99.90;;;;;;5088326;28;20043;-64
2022/09/26 01:24:43;;;;;;;9.55;3.30;;;10.40;99.90;;;;;;5078843;28;21033;-63
2022/09/26 01:27:45;;;;;;;4.38;2.60;;;10.40;99.90;;;;;;5075381;28;20045;-62
2022/09/26 01:30:18;;;;;;;6.80;2.85;;;10.30;99.90;;;;;;5082267;28;20044;-63
2022/09/26 01:33:02;;;;;;;4.80;2.92;;;10.40;99.90;;;;;;5081372;28;20040;-62
2022/09/26 01:35:33;;;;;;;6.88;2.97;;;10.30;99.90;;;;;;5082884;28;20070;-62
2022/09/26 01:38:20;;;;;;;4.55;2.50;;;10.40;99.90;;;;;;5071468;28;20115;-63
2022/09/26 01:41:04;;;;;;;5.05;2.50;;;10.30;99.90;;;;;;5072718;28;20043;-63
2022/09/26 01:43:53;;;;;;;5.25;2.35;;;10.40;99.90;;;;;;5088552;28;20119;-64
2022/09/26 01:46:33;;;;;;;6.32;2.42;;;10.30;99.90;;;;;;5082940;28;20451;-62
2022/09/26 01:49:17;;;;;;;7.37;3.13;;;10.40;99.90;;;;;;5086687;28;20047;-63
2022/09/26 01:52:09;;;;;;;4.40;2.42;;;10.40;99.90;;;;;;5082535;28;20050;-63
2022/09/26 01:55:22;;;;;;;5.32;2.42;;;10.40;99.90;;;;;;5076603;28;20047;-63
2022/09/26 01:57:55;;;;;;;6.18;2.70;;;10.50;99.90;;;;;;5063856;28;20056;-63
2022/09/26 02:00:20;;;;;;;8.85;2.90;;;10.50;99.90;;;;;;5071231;28;20040;-63
2022/09/26 02:02:48;;;;;;;8.73;3.05;;;10.50;99.90;;;;;;5083491;28;20044;-63
2022/09/26 02:05:23;;;;;;;7.50;2.97;;;10.60;99.90;;;;;;5074115;28;20185;-63
2022/09/26 02:07:59;;;;;;;6.80;3.00;;;10.60;99.90;;;;;;5084337;28;20059;-63
2022/09/26 02:10:50;;;;;;;6.70;2.97;;;10.60;99.90;;;;;;5081146;28;20111;-64
2022/09/26 02:13:22;;;;;;;8.48;3.33;;;10.70;99.90;;;;;;5087162;28;20063;-63
2022/09/26 02:15:54;;;;;;;4.03;3.03;;;10.70;99.90;;;;;;5078868;28;20036;-63
2022/09/26 02:18:30;;;;;;;6.95;3.40;;;10.70;99.90;;;;;;5080837;28;20460;-63
2022/09/26 02:21:06;;;;;;;6.25;3.40;;;10.70;99.90;;;;;;5078552;28;20364;-63
2022/09/26 02:23:31;;;;;;;9.43;3.40;;;10.70;99.90;;;;;;5081077;28;20032;-63
2022/09/26 02:25:57;;;;;;;9.05;3.90;;;10.70;99.90;;;;;;5080029;28;20113;-63
2022/09/26 02:28:22;;;;;;;9.80;3.25;;;10.70;99.90;;;;;;5083990;28;20032;-64
2022/09/26 02:30:51;;;;;;;7.05;3.70;;;10.70;99.90;;;;;;5083566;28;20119;-63
2022/09/26 02:33:17;;;;;;;6.93;3.45;;;10.70;99.90;;;;;;5079874;28;20036;-63
2022/09/26 02:35:54;;;;;;;8.90;3.40;;;10.80;99.90;;;;;;5083990;28;20051;-63
2022/09/26 02:38:26;;;;;;;8.38;3.80;;;10.80;99.90;;;;;;5081308;28;20082;-63
2022/09/26 02:41:10;;;;;;;6.47;3.20;;;10.70;99.90;;;;;;5073920;28;20033;-62
2022/09/26 02:44:16;;;;;;;7.47;3.95;;;10.70;99.90;;;;;;5078787;28;20410;-63
2022/09/26 02:46:42;;;;;;;7.60;3.80;;;10.50;99.90;;;;;;5079363;28;20040;-63
2022/09/26 02:49:28;;;;;;;7.97;3.75;;;10.50;99.90;;;;;;5088278;28;20066;-64
2022/09/26 02:52:18;;;;;;;8.93;4.05;;;10.40;99.90;;;;;;5073923;28;20623;-64
2022/09/26 02:54:59;;;;;;;7.95;3.97;;;10.40;99.90;;;;;;5078644;28;20036;-64
2022/09/26 02:57:43;;;;;;;;;;;10.40;99.90;;;;;;5077390;28;20071;-64
2022/09/26 03:00:20;;;;;;;9.07;4.47;;;10.30;99.90;;;;;;5074234;28;19923;-65
2022/09/26 03:02:53;;;;;;;8.93;4.45;;;10.30;99.90;;;;;;5076991;28;20437;-65
2022/09/26 03:05:40;;;;;;;5.93;3.85;;;10.30;99.90;;;;;;5072231;28;20072;-63
2022/09/26 03:08:26;;;;;;;9.25;4.60;;;10.30;99.90;;;;;;5084731;28;20032;-64
2022/09/26 03:10:55;;;;;;;7.43;4.28;;;10.30;99.90;;;;;;5081453;28;20129;-64
2022/09/26 03:13:22;;;;;;;9.02;4.55;;;10.20;99.90;;;;;;5076500;28;20044;-65
2022/09/26 03:15:55;;;;;;;9.77;4.65;;;10.20;99.90;;;;;;5076762;28;20117;-65
2022/09/26 03:18:29;;;;;;;13.18;5.13;;;10.20;99.90;;;;;;5082660;28;20047;-64
2022/09/26 03:20:55;;;;;;;12.45;4.70;;;10.10;99.90;;;;;;5078226;28;20695;-64
2022/09/26 03:23:25;;;;;;;10.30;5.20;;;10.10;99.90;;;;;;5085443;28;20036;-64
2022/09/26 03:26:07;;;;;;;10.38;5.22;;;10.10;99.90;;;;;;5082404;28;20036;-64
2022/09/26 03:28:32;;;;;;;9.25;5.25;;;10.10;99.90;;;;;;5087070;28;20390;-64
2022/09/26 03:30:58;;;;;;;9.00;5.78;;;10.10;99.90;;;;;;5081626;28;20039;-64
2022/09/26 03:33:23;;;;;;;10.05;5.65;;;10.10;99.90;;;;;;5067726;28;20503;-64
2022/09/26 03:35:49;;;;;;;11.32;5.60;;;10.10;99.90;;;;;;5061789;28;20383;-63
2022/09/26 03:38:15;;;;;;;14.52;5.78;;;10.10;99.90;;;;;;5061849;28;20070;-62
2022/09/26 03:40:41;;;;;;;8.50;5.45;;;10.10;99.90;;;;;;5064953;28;20044;-64
2022/09/26 03:43:07;;;;;;;11.07;5.70;;;10.10;99.90;;;;;;5065625;28;20430;-64
2022/09/26 03:45:35;;;;;;;10.15;5.38;;;10.10;99.90;;;;;;5065483;28;20039;-63
2022/09/26 03:48:01;;;;;;;12.80;6.28;;;10.10;99.90;;;;;;5063428;28;20036;-64
2022/09/26 03:50:27;;;;;;;12.80;5.55;;;10.10;99.90;;;;;;5067943;28;20032;-63
2022/09/26 03:52:52;;;;;;;10.32;5.47;;;10.10;99.90;;;;;;5060711;28;22620;-61
2022/09/26 03:55:18;;;;;;;12.95;6.97;;;10.10;99.90;;;;;;5063374;28;20029;-62
2022/09/26 03:57:44;;;;;;;11.55;6.38;;;10.10;99.90;;;;;;5062504;28;20037;-63
2022/09/26 04:00:10;;;;;;;11.23;6.05;;;10.10;99.90;;;;;;5063373;28;20033;-62
2022/09/26 04:02:35;;;;;;;10.55;6.43;;;10.10;99.90;;;;;;5061867;28;20040;-63
2022/09/26 04:05:01;;;;;;;12.70;7.25;;;10.10;99.90;;;;;;5065169;28;20060;-63
2022/09/26 04:07:26;;;;;;;14.88;7.28;;;10.10;99.90;;;;;;5060230;28;20496;-64
2022/09/26 04:09:52;;;;;;;13.60;6.97;;;10.00;99.90;;;;;;5062712;28;20041;-63
2022/09/26 04:12:21;;;;;;;14.05;7.47;;;10.00;99.90;;;;;;5061837;28;20037;-63
2022/09/26 04:14:46;;;;;;;11.77;7.55;;;10.00;99.90;;;;;;5075389;28;20059;-63
2022/09/26 04:17:12;;;;;;;14.02;7.55;;;10.10;99.90;;;;;;5070325;28;20028;-63
2022/09/26 04:19:39;;;;;;;14.93;7.18;;;10.00;99.90;;;;;;5069304;28;20029;-63
2022/09/26 04:22:07;;;;;;;17.40;8.90;;;10.10;99.90;;;;;;5069611;28;20044;-64
2022/09/26 04:24:32;;;;;;;11.73;7.32;;;10.00;99.90;;;;;;5066326;28;20044;-63
2022/09/26 04:26:59;;;;;;;16.35;8.73;;;10.10;99.90;;;;;;5069353;28;20082;-64
2022/09/26 04:29:26;;;;;;;13.18;8.00;;;10.00;99.90;;;;;;5068135;28;20040;-64
2022/09/26 04:31:52;;;;;;;15.45;8.73;;;10.00;99.90;;;;;;5074186;28;20036;-64
2022/09/26 04:34:18;;;;;;;14.73;8.65;;;10.00;99.90;;;;;;5086955;28;20036;-64
2022/09/26 04:36:43;;;;;;;14.30;7.57;;;10.00;99.90;;;;;;5080377;28;20047;-64
2022/09/26 04:39:09;;;;;;;17.83;8.82;;;10.00;99.90;;;;;;5078537;28;20101;-63
2022/09/26 04:41:36;;;;;;;15.77;8.27;;;10.00;99.90;;;;;;5075505;28;20118;-63
2022/09/26 04:44:02;;;;;;;13.38;8.48;;;10.00;99.90;;;;;;5083623;28;20044;-62
2022/09/26 04:46:28;;;;;;;13.32;8.45;;;10.00;99.90;;;;;;5077562;28;20040;-64
2022/09/26 04:48:56;;;;;;;14.55;8.77;;;10.00;99.90;;;;;;5080079;28;20054;-62
2022/09/26 04:51:23;;;;;;;20.73;9.68;;;10.00;99.90;;;;;;5075369;28;22638;-63
2022/09/26 04:53:50;;;;;;;13.23;8.65;;;10.00;99.90;;;;;;5086108;28;20044;-63
2022/09/26 04:56:17;;;;;;;16.95;9.38;;;9.90;99.90;;;;;;5081018;28;20105;-62
2022/09/26 04:58:44;;;;;;;14.82;8.82;;;9.90;99.90;;;;;;5079454;28;20040;-63
2022/09/26 05:01:12;;;;;;;14.15;9.30;;;9.90;99.90;;;;;;5082953;28;20957;-62
2022/09/26 05:03:38;;;;;;;15.23;8.85;;;9.90;99.90;;;;;;5076957;28;20036;-63
2022/09/26 05:06:09;;;;;;;17.17;9.38;;;9.90;99.90;;;;;;5083392;28;20529;-64
2022/09/26 05:08:35;;;;;;;16.67;9.10;;;9.90;99.90;;;;;;5079143;28;20043;-62
2022/09/26 05:11:01;;;;;;;17.75;8.80;;;10.00;99.90;;;;;;5082666;28;20036;-62
2022/09/26 05:13:27;;;;;;;16.17;9.35;;;10.00;99.90;;;;;;5081231;28;20040;-62
2022/09/26 05:15:54;;;;;;;15.07;9.40;;;9.90;99.90;;;;;;5086297;28;20036;-61
2022/09/26 05:18:22;;;;;;;15.75;9.60;;;10.00;99.90;;;;;;5090747;28;20105;-65
2022/09/26 05:20:48;;;;;;;14.27;9.85;;;10.00;99.90;;;;;;5088187;28;20036;-64
2022/09/26 05:26:18;;;;;;;17.55;10.15;;;10.00;99.90;;;;;;5084000;28;20038;-64
2022/09/26 05:26:18;;;;;;;18.48;10.02;;;10.00;99.90;;;;;;5081454;28;20064;-64
2022/09/26 05:28:49;;;;;;;17.10;10.00;;;10.00;99.90;;;;;;5082326;28;20126;-63
2022/09/26 05:31:15;;;;;;;21.05;10.68;;;9.90;99.90;;;;;;5085914;28;20047;-63
2022/09/26 05:33:41;;;;;;;19.95;11.57;;;9.90;99.90;;;;;;5081696;28;20042;-63
2022/09/26 05:36:07;;;;;;;20.10;10.93;;;9.90;99.90;;;;;;5082517;28;20033;-64
2022/09/26 05:38:33;;;;;;;16.80;10.63;;;9.90;99.90;;;;;;5084914;28;21486;-64
2022/09/26 05:40:59;;;;;;;19.90;11.02;;;9.90;99.90;;;;;;5085361;28;20527;-63
2022/09/26 05:43:28;;;;;;;21.70;11.45;;;9.90;99.90;;;;;;5085443;28;20062;-63
2022/09/26 05:46:04;;;;;;;18.98;10.93;;;9.90;99.90;;;;;;5081074;28;20038;-63
2022/09/26 05:48:32;;;;;;;19.40;11.82;;;9.90;99.90;;;;;;5088689;28;20066;-63
2022/09/26 05:51:12;;;;;;;20.55;10.98;;;9.90;99.90;;;;;;5079680;28;20046;-63
2022/09/26 05:53:39;;;;;;;21.77;11.05;;;9.90;99.90;;;;;;5079804;28;21261;-63
2022/09/26 05:56:06;;;;;;;18.30;10.98;;;9.90;99.90;;;;;;5087410;28;20059;-63
2022/09/26 05:58:33;;;;;;;18.90;11.68;;;9.80;99.90;;;;;;5084265;28;20036;-64
2022/09/26 06:01:06;;;;;;;18.58;11.20;;;9.80;99.90;;;;;;5085400;28;20038;-64
2022/09/26 06:03:35;;;;;;;17.58;10.98;;;9.80;99.90;;;;;;5083704;28;20044;-64
2022/09/26 06:06:06;;;;;;;17.83;10.35;;;9.80;99.90;;;;;;5080735;28;20521;-65
2022/09/26 06:08:33;;;;;;;18.42;11.18;;;9.80;99.90;;;;;;5074092;28;20059;-64
2022/09/26 06:11:01;;;;;;;18.35;10.60;;;9.80;99.90;;;;;;5078623;28;20032;-64
2022/09/26 06:13:26;;;;;;;18.02;11.25;;;9.80;99.90;;;;;;5085902;28;20036;-65
2022/09/26 06:15:53;;;;;;;16.75;10.63;;;9.80;99.90;;;;;;5088236;28;20063;-63
2022/09/26 06:18:18;;;;;;;15.70;10.20;;;9.80;99.90;;;;;;5085192;28;20046;-65
2022/09/26 06:20:44;;;;;;;18.98;11.02;;;9.80;99.90;;;;;;5086747;28;20467;-64
2022/09/26 06:23:09;;;;;;;17.45;10.38;;;9.70;99.90;;;;;;5078461;28;20034;-64
2022/09/26 06:25:35;;;;;;;18.73;9.80;;;9.70;99.90;;;;;;5078709;28;20142;-63
2022/09/26 06:28:01;;;;;;;18.48;10.48;;;9.70;99.90;;;;;;5078018;28;20823;-63
2022/09/26 06:30:26;;;;;;;17.55;10.23;;;9.70;99.90;;;;;;5080611;28;20048;-64
2022/09/26 06:32:53;;;;;;;16.58;9.43;;;9.70;99.90;;;;;;5081239;28;20036;-63
2022/09/26 06:35:21;;;;;;;21.98;11.00;;;9.70;99.90;;;;;;5083382;28;20043;-64
2022/09/26 06:37:47;;;;;;;19.15;10.27;;;9.80;99.90;;;;;;5084121;28;20075;-64
2022/09/26 06:40:13;;;;;;;17.15;9.18;;;9.80;99.90;;;;;;5084258;28;20476;-64
2022/09/26 06:42:39;;;;;;;15.95;8.43;;;9.70;99.90;;;;;;5081009;28;20093;-65
2022/09/26 06:45:09;;;;;;;13.77;8.10;;;9.80;99.90;;;;;;5083137;28;20024;-63
2022/09/26 06:47:35;;;;;;;15.15;8.98;;;9.80;99.90;;;;;;5083885;28;20056;-63
2022/09/26 06:50:01;;;;;;;11.70;7.82;;;9.80;99.90;;;;;;5078036;28;20093;-64
2022/09/26 06:52:33;;;;;;;16.75;8.55;;;9.80;99.90;;;;;;5082585;28;20487;-63
2022/09/26 06:55:03;;;;;;;13.00;7.53;;;9.80;99.90;;;;;;5085889;28;20052;-63
2022/09/26 06:57:36;;;;;;;14.05;7.38;;;9.80;99.90;;;;;;5090172;28;20078;-64
2022/09/26 07:00:02;;;;;;;13.73;7.60;;;9.80;99.90;;;;;;5085133;28;20036;-64
2022/09/26 07:02:28;;;;;;;14.52;7.00;;;9.80;99.90;;;;;;5089732;28;20499;-63
2022/09/26 07:04:53;;;;;;;12.35;7.47;;;9.80;99.90;;;;;;5087506;28;20048;-65
2022/09/26 07:07:19;;;;;;;10.40;6.80;;;9.70;99.90;;;;;;5080431;28;20032;-64
2022/09/26 07:09:44;;;;;;;13.07;7.82;;;9.80;99.90;;;;;;5088770;28;20043;-63
2022/09/26 07:12:12;;;;;;;11.25;7.25;;;9.80;99.90;;;;;;5071699;28;20076;-63
2022/09/26 07:14:37;;;;;;;12.73;7.15;;;9.70;99.90;;;;;;5077926;28;20047;-64
2022/09/26 07:17:03;;;;;;;11.00;6.20;;;9.80;99.90;;;;;;5091802;28;20593;-63
2022/09/26 07:19:28;;;;;;;11.43;6.30;;;9.70;99.90;;;;;;5086392;28;20028;-64
2022/09/26 07:21:54;;;;;;;13.43;6.35;;;9.70;99.90;;;;;;5084779;28;20036;-66
2022/09/26 07:24:19;;;;;;;10.43;6.28;;;9.70;99.90;;;;;;5084834;28;20122;-65
2022/09/26 07:26:45;;;;;;;12.07;6.47;;;9.70;99.90;;;;;;5091465;28;20360;-65
2022/09/26 07:29:11;;;;;;;10.27;6.28;;;9.70;99.90;;;;;;5086570;28;20131;-64
2022/09/26 07:31:37;;;;;;;11.93;6.00;;;9.60;99.90;;;;;;5088606;28;20047;-65
2022/09/26 07:34:03;;;;;;;12.32;5.95;;;9.60;99.90;;;;;;5088803;28;20071;-65
2022/09/26 07:36:32;;;;;;;12.02;5.65;;;9.60;99.90;;;;;;5090075;28;20699;-66
2022/09/26 07:38:58;;;;;;;12.55;6.30;;;9.50;99.90;;;;;;5089782;28;20467;-66
2022/09/26 07:41:23;;;;;;;11.73;5.93;;;9.60;99.90;;;;;;5083009;28;20043;-67
2022/09/26 07:43:49;;;;;;;12.10;6.05;;;9.50;99.90;;;;;;5087885;28;20399;-66
2022/09/26 07:51:43;;;;;;;10.07;6.13;;;9.60;99.90;;;;;;5093214;28;20044;-65
2022/09/26 07:54:08;;;;;;;14.77;6.22;;;9.60;99.90;;;;;;5092643;28;20036;-65
2022/09/26 07:56:34;;;;;;;13.25;6.53;;;9.70;99.90;;;;;;5093034;28;20562;-64
2022/09/26 07:59:04;;;;;;;10.88;6.28;;;9.70;99.90;;;;;;5094836;28;20047;-65
2022/09/26 08:01:30;;;;;;;10.00;6.13;;;9.70;99.90;;;;;;5091651;28;20074;-65
2022/09/26 08:03:57;;;;;;;13.15;6.53;;;9.80;99.90;;;;;;5091951;28;20340;-66
2022/09/26 08:06:23;;;;;;;9.93;5.80;;;9.80;99.90;;;;;;5095327;28;20048;-63
2022/09/26 08:08:57;;;;;;;8.60;5.68;;;9.80;99.90;;;;;;5094343;28;20040;-64
2022/09/26 08:11:23;;;;;;;9.82;5.32;;;9.80;99.90;;;;;;5093510;28;20044;-66
2022/09/26 08:13:49;;;;;;;11.60;6.40;;;9.80;99.90;;;;;;5089558;28;20057;-65
2022/09/26 08:16:21;;;;;;;7.55;5.25;;;9.80;99.90;;;;;;5094658;28;20135;-66
2022/09/26 08:18:47;;;;;;;11.07;5.53;;;9.80;99.90;;;;;;5092241;28;20114;-63
2022/09/26 08:21:13;;;;;;;9.13;5.47;;;9.90;99.90;;;;;;5084341;28;20050;-65
2022/09/26 08:23:39;;;;;;;10.90;5.72;;;9.80;99.90;;;;;;5093218;28;20600;-63
2022/09/26 08:26:08;;;;;;;11.07;5.78;;;9.90;99.90;;;;;;5094891;28;20150;-64
2022/09/26 08:28:35;;;;;;;10.13;5.95;;;9.90;99.90;;;;;;5093473;28;20047;-63
2022/09/26 08:31:03;;;;;;;9.13;5.60;;;9.90;99.90;;;;;;5093851;28;20045;-63
2022/09/26 08:33:33;;;;;;;9.60;5.43;;;10.00;99.90;;;;;;5090858;28;20478;-63
2022/09/26 08:36:06;;;;;;;9.97;5.93;;;9.90;99.90;;;;;;5094597;28;20043;-63
2022/09/26 08:38:34;;;;;;;13.30;6.45;;;10.00;99.90;;;;;;5090873;28;20046;-64
2022/09/26 08:41:07;;;;;;;11.70;5.85;;;10.00;99.90;;;;;;5072117;28;20036;-63
2022/09/26 08:43:46;;;;;;;11.75;6.00;;;10.00;99.90;;;;;;5089273;28;20490;-66
2022/09/26 08:46:44;;;;;;;7.95;5.50;;;10.00;99.90;;;;;;5086482;28;20052;-64
2022/09/26 08:49:44;;;;;;;10.30;5.70;;;10.00;99.90;;;;;;5077318;28;20043;-63
2022/09/26 08:52:25;;;;;;;10.75;5.55;;;10.00;99.90;;;;;;5084775;28;20087;-62
2022/09/26 08:54:53;;;;;;;8.63;5.68;;;10.00;99.90;;;;;;5079343;28;20486;-64
2022/09/26 08:57:41;;;;;;;8.27;5.57;;;10.10;99.90;;;;;;5077706;28;20739;-63
2022/09/26 09:00:20;;;;;;;10.23;4.97;;;10.00;99.90;;;;;;5049579;28;20048;-63
2022/09/26 09:03:07;;;;;;;7.57;4.97;;;10.10;99.90;;;;;;5074668;28;20475;-63
2022/09/26 09:05:37;;;;;;;7.78;4.63;;;10.10;99.90;;;;;;5085067;28;20059;-62
2022/09/26 09:08:11;;;;;;;9.13;4.82;;;10.10;99.90;;;;;;5089806;28;20040;-62
2022/09/26 09:10:54;;;;;;;8.80;4.93;;;10.20;99.90;;;;;;5077618;28;20056;-63
2022/09/26 09:13:28;;;;;;;6.80;4.57;;;10.20;99.90;;;;;;5090372;28;20055;-62
2022/09/26 09:16:11;;;;;;;11.65;4.95;;;10.20;99.90;;;;;;5089145;28;20040;-61
2022/09/26 09:18:55;;;;;;;7.80;4.60;;;10.30;99.90;;;;;;5086399;28;20044;-62
2022/09/26 09:21:33;;;;;;;10.57;4.78;;;10.30;99.90;;;;;;5084513;28;20032;-62
2022/09/26 09:24:06;;;;;;;8.20;5.00;;;10.40;99.90;;;;;;5076368;28;20041;-62
2022/09/26 09:26:40;;;;;;;9.93;5.15;;;10.40;99.90;;;;;;5092175;28;20395;-62
2022/09/26 09:29:20;;;;;;;9.45;4.32;;;10.50;99.90;;;;;;5090242;28;20096;-61
2022/09/26 09:31:46;;;;;;;9.93;4.93;;;10.60;99.90;;;;;;5091120;28;20051;-62
2022/09/26 09:34:25;;;;;;;10.00;4.65;;;10.60;99.90;;;;;;5082433;28;20082;-63
2022/09/26 09:36:57;;;;;;;9.73;4.70;;;10.60;99.90;;;;;;5082601;28;20074;-62
2022/09/26 09:39:32;;;;;;;10.30;4.43;;;10.70;99.90;;;;;;5087416;28;20074;-63
2022/09/26 09:42:22;;;;;;;7.65;4.68;;;10.70;99.90;;;;;;5090788;28;20067;-63
2022/09/26 09:45:11;;;;;;;11.13;5.50;;;10.70;99.90;;;;;;5089993;28;21032;-62
2022/09/26 09:47:38;;;;;;;12.32;4.60;;;10.80;99.90;;;;;;5091791;28;20046;-62
2022/09/26 09:50:26;;;;;;;9.48;5.10;;;10.80;99.90;;;;;;5087532;28;20040;-62
2022/09/26 09:53:10;;;;;;;6.88;4.40;;;10.70;99.90;;;;;;5089509;28;20051;-62
2022/09/26 09:56:01;;;;;;;9.55;5.13;;;10.80;99.90;;;;;;5089766;28;20123;-62
2022/09/26 09:58:45;;;;;;;8.23;5.38;;;10.80;99.90;;;;;;5078918;28;20048;-62
2022/09/26 10:01:24;;;;;;;9.73;5.13;;;10.80;99.90;;;;;;5087672;28;20096;-62
2022/09/26 10:04:19;;;;;;;12.57;5.32;;;10.80;99.90;;;;;;5086594;28;20095;-62
2022/09/26 10:06:47;;;;;;;7.93;5.13;;;10.90;99.90;;;;;;5084837;28;20121;-63
2022/09/26 10:09:25;;;;;;;11.30;4.75;;;10.90;99.90;;;;;;5087512;28;20048;-63
2022/09/26 10:11:51;;;;;;;11.63;5.85;;;10.90;99.90;;;;;;5091637;28;20094;-62
2022/09/26 10:14:32;;;;;;;9.75;5.35;;;10.80;99.90;;;;;;5090013;28;20032;-64
2022/09/26 10:17:10;;;;;;;9.05;6.22;;;10.80;99.90;;;;;;5082625;28;20714;-63
2022/09/26 10:19:39;;;;;;;9.90;6.00;;;10.70;99.90;;;;;;5079417;28;20044;-64
2022/09/26 10:22:31;;;;;;;14.18;6.32;;;10.70;99.90;;;;;;5091385;28;20036;-62
2022/09/26 10:25:03;;;;;;;13.32;6.63;;;10.70;99.90;;;;;;5088494;28;20036;-64
2022/09/26 10:27:36;;;;;;;11.02;5.68;;;10.70;99.90;;;;;;5091000;28;20043;-63
2022/09/26 10:30:29;;;;;;;12.88;5.72;;;10.70;99.90;;;;;;5079676;28;20032;-64
2022/09/26 10:32:59;;;;;;;10.63;5.72;;;10.90;99.90;;;;;;5086666;28;20052;-64
2022/09/26 10:35:28;;;;;;;;;;;10.90;99.90;;;;;;5089014;28;20050;-64
2022/09/26 10:38:07;;;;;;;10.25;5.78;;;10.90;99.90;;;;;;5086565;28;19930;-63
2022/09/26 10:40:45;;;;;;;11.32;5.88;;;11.00;99.90;;;;;;5081035;28;20056;-63
2022/09/26 10:43:27;;;;;;;12.93;6.13;;;11.00;99.90;;;;;;5084853;28;20047;-62
2022/09/26 10:46:11;;;;;;;9.20;5.38;;;11.10;99.90;;;;;;5082076;28;20024;-63
2022/09/26 10:48:46;;;;;;;10.70;5.82;;;11.10;99.90;;;;;;5086769;28;20032;-64
2022/09/26 10:51:28;;;;;;;12.82;6.05;;;11.20;99.90;;;;;;5079204;28;20071;-63
2022/09/26 10:54:02;;;;;;;10.45;5.80;;;11.30;99.90;;;;;;5075517;28;20032;-63
2022/09/26 10:56:31;;;;;;;9.70;5.13;;;11.30;99.90;;;;;;5087570;28;20054;-61
2022/09/26 10:59:04;;;;;;;8.55;5.32;;;11.30;99.90;;;;;;5081460;28;20664;-64
2022/09/26 11:01:31;;;;;;;9.90;5.28;;;11.30;99.90;;;;;;5082454;28;20113;-64
2022/09/26 11:07:06;;;;;;;7.95;5.78;;;11.20;99.90;;;;;;5083666;28;20105;-64
2022/09/26 11:09:32;;;;;;;9.98;5.65;;;11.20;99.90;;;;;;5090272;28;20036;-64
2022/09/26 11:11:57;;;;;;;8.70;4.80;;;11.20;99.90;;;;;;5083957;28;20069;-63
2022/09/26 11:14:31;;;;;;;8.38;5.15;;;11.20;99.90;;;;;;5087527;28;20063;-64
2022/09/26 11:16:58;;;;;;;7.45;5.43;;;11.20;99.90;;;;;;5089588;28;20063;-65
2022/09/26 11:19:31;;;;;;;10.40;6.07;;;11.20;99.90;;;;;;5088242;28;20036;-63
2022/09/26 11:22:05;;;;;;;10.23;5.60;;;11.20;99.90;;;;;;5087342;28;20040;-64
2022/09/26 11:24:44;;;;;;;12.55;5.57;;;11.20;99.90;;;;;;5089106;28;20105;-63
2022/09/26 11:27:13;;;;;;;10.00;5.77;;;11.20;99.90;;;;;;5087128;28;20047;-64
2022/09/26 11:30:07;;;;;;;9.75;5.85;;;11.10;99.90;;;;;;5089685;28;20126;-63
2022/09/26 11:32:42;;;;;;;9.85;6.60;;;11.10;99.90;;;;;;5088766;28;20120;-64
2022/09/26 11:35:28;;;;;;;10.57;5.88;;;11.10;99.90;;;;;;5087091;28;20071;-65
2022/09/26 11:38:39;;;;;;;9.25;6.18;;;11.10;99.90;;;;;;5088585;28;20051;-66
2022/09/26 11:41:37;;;;;;;11.90;6.63;;;11.10;99.90;;;;;;5087880;28;20036;-67
2022/09/26 11:44:19;;;;;;;9.10;6.63;;;11.10;99.90;;;;;;5084131;28;20040;-66
2022/09/26 11:47:18;;;;;;;12.57;7.43;;;11.00;99.90;;;;;;5088581;28;20051;-66
2022/09/26 11:49:58;;;;;;;11.20;6.88;;;11.10;99.90;;;;;;5089320;28;20043;-65
2022/09/26 11:52:51;;;;;;;11.75;7.25;;;11.00;99.90;;;;;;5091542;28;20047;-66
2022/09/26 11:55:36;;;;;;;12.27;7.40;;;11.00;99.90;;;;;;5086981;28;20502;-66
2022/09/26 11:58:38;;;;;;;14.13;7.93;;;11.10;99.90;;;;;;5091002;28;20044;-67
2022/09/26 12:01:15;;;;;;;11.20;7.20;;;11.10;99.90;;;;;;5072220;28;20470;-67
2022/09/26 12:04:10;;;;;;;11.90;7.40;;;11.10;99.90;;;;;;5087498;28;20040;-65
2022/09/26 12:06:52;;;;;;;11.93;6.72;;;11.10;99.90;;;;;;5073711;28;20407;-66
2022/09/26 12:10:03;;;;;;;13.38;7.15;;;11.10;99.90;;;;;;5089971;28;20048;-66
2022/09/26 12:12:40;;;;;;;;;;;11.00;99.90;;;;;;5067445;28;20048;-66
2022/09/26 12:15:22;;;;;;;13.98;7.65;;;11.00;99.90;;;;;;5088390;28;19961;-66
2022/09/26 12:18:23;;;;;;;11.20;8.02;;;11.00;99.90;;;;;;5090313;28;20040;-67
2022/09/26 12:21:10;;;;;;;14.10;7.72;;;11.10;99.90;;;;;;5085857;28;20532;-67
2022/09/26 12:23:51;;;;;;;11.30;7.30;;;11.10;99.90;;;;;;5081909;28;20417;-66
2022/09/26 12:26:28;;;;;;;11.50;7.53;;;11.10;99.90;;;;;;5089444;28;20475;-66
2022/09/26 12:29:14;;;;;;;10.13;7.22;;;11.10;99.90;;;;;;5086769;28;20040;-67
2022/09/26 12:31:53;;;;;;;10.20;7.05;;;11.10;99.90;;;;;;5085817;28;20379;-66
2022/09/26 12:34:36;;;;;;;11.85;7.15;;;11.10;99.90;;;;;;5083958;28;20046;-66
2022/09/26 12:37:32;;;;;;;12.50;7.50;;;11.10;99.90;;;;;;5087617;28;20038;-66
2022/09/26 12:40:28;;;;;;;11.25;8.02;;;11.10;99.90;;;;;;5088892;28;20465;-67
2022/09/26 12:43:12;;;;;;;10.27;6.65;;;11.20;99.90;;;;;;5085971;28;20040;-66
2022/09/26 12:45:56;;;;;;;10.43;6.95;;;11.10;99.90;;;;;;5086738;28;20051;-67
2022/09/26 12:48:57;;;;;;;13.27;7.60;;;11.20;99.90;;;;;;5093128;28;20544;-66
2022/09/26 12:51:35;;;;;;;10.15;6.38;;;11.20;99.90;;;;;;5088975;28;20036;-65
2022/09/26 12:54:40;;;;;;;11.48;7.18;;;11.20;99.90;;;;;;5089932;28;20044;-66
2022/09/26 12:57:28;;;;;;;13.13;7.07;;;11.30;99.90;;;;;;5090029;28;20040;-67
2022/09/26 13:00:10;;;;;;;9.15;5.97;;;11.30;99.90;;;;;;5087820;28;20503;-65
2022/09/26 13:03:04;;;;;;;10.98;6.45;;;11.30;99.90;;;;;;5089906;28;20047;-66
2022/09/26 13:06:05;;;;;;;10.70;6.32;;;11.30;99.90;;;;;;5090859;28;20083;-67
2022/09/26 13:09:03;;;;;;;10.35;6.18;;;11.40;99.90;;;;;;5089104;28;20510;-66
2022/09/26 13:12:18;;;;;;;8.20;4.70;;;11.40;99.90;;;;;;5090892;28;20040;-67
2022/09/26 13:15:07;;;;;;;8.40;5.25;;;11.30;99.90;;;;;;5075805;28;20048;-67
2022/09/26 13:17:46;;;;;;;7.07;5.20;;;11.30;99.90;;;;;;5090791;28;20048;-67
2022/09/26 13:20:26;;;;;;;8.93;5.50;;;11.30;99.90;;;;;;5081807;28;20068;-66
2022/09/26 13:23:15;;;;;;;7.97;5.28;;;11.30;99.90;;;;;;5092836;28;20539;-66
2022/09/26 13:25:46;;;;;;;7.70;4.95;;;11.30;99.90;;;;;;5092260;28;20039;-67
2022/09/26 13:28:17;;;;;;;7.47;5.45;;;11.40;99.90;;;;;;5092950;28;20491;-68